Time;durP1;ratioP1;P1;durP2;ratioP2;P2;SDS_P1;SDS_P2;PMS_P1;PMS_P2;Temp;Humidity;BMP_temperature;BMP_pressure;BME280_temperature;BME280_humidity;BME280_pressure;Samples;Min_cycle;Max_cycle;Signal;HPM_P1;HPM_P2
2022/10/13 00:00:49;;;;;;;5.50;5.00;;;;;18.50;100901.00;;;;2086855;28;20236;-51
2022/10/13 00:01:50;;;;;;;5.93;4.40;;;;;18.50;100893.00;;;;2085926;28;20216;-51
2022/10/13 00:02:50;;;;;;;5.50;5.00;;;;;18.50;100889.00;;;;2086660;28;20812;-51
2022/10/13 00:03:51;;;;;;;5.50;4.77;;;;;18.50;100891.00;;;;2086747;28;20220;-51
2022/10/13 00:04:51;;;;;;;5.70;5.20;;;;;18.50;100899.00;;;;2084320;28;20213;-51
2022/10/13 00:05:52;;;;;;;5.57;5.17;;;;;18.50;100889.00;;;;2085853;28;21159;-51
2022/10/13 00:06:52;;;;;;;4.77;4.37;;;;;18.50;100883.00;;;;2086660;28;20219;-51
2022/10/13 00:07:52;;;;;;;5.50;5.00;;;;;18.50;100885.00;;;;2086152;28;20901;-51
2022/10/13 00:08:53;;;;;;;5.33;4.83;;;;;18.50;100890.00;;;;2086515;28;20704;-51
2022/10/13 00:09:53;;;;;;;4.97;4.43;;;;;18.50;100896.00;;;;2086428;28;20672;-51
2022/10/13 00:10:53;;;;;;;5.40;4.90;;;;;18.50;100891.00;;;;2086647;28;20277;-50
2022/10/13 00:11:57;;;;;;;5.47;4.50;;;;;18.50;100889.00;;;;2085654;28;20208;-51
2022/10/13 00:12:57;;;;;;;5.07;4.57;;;;;18.50;100889.00;;;;2086291;28;20208;-53
2022/10/13 00:14:00;;;;;;;5.37;4.50;;;;;18.50;100887.00;;;;2086474;28;20697;-50
2022/10/13 00:15:01;;;;;;;5.47;4.97;;;;;18.50;100890.00;;;;2086637;28;20212;-51
2022/10/13 00:16:01;;;;;;;5.57;4.80;;;;;18.50;100886.00;;;;2086878;28;20870;-51
2022/10/13 00:17:01;;;;;;;5.07;4.67;;;;;18.50;100890.00;;;;2087612;28;20208;-51
2022/10/13 00:18:02;;;;;;;5.50;5.00;;;;;18.50;100894.00;;;;2080629;28;20228;-51
2022/10/13 00:19:02;;;;;;;4.47;4.07;;;;;18.50;100884.00;;;;2080027;28;20263;-51
2022/10/13 00:20:03;;;;;;;5.60;5.00;;;;;18.50;100894.00;;;;2080170;28;20213;-51
2022/10/13 00:21:08;;;;;;;5.60;5.10;;;;;18.50;100891.00;;;;2079920;28;20967;-50
2022/10/13 00:22:08;;;;;;;5.38;4.88;;;;;18.50;100883.00;;;;2079713;28;20708;-50
2022/10/13 00:23:09;;;;;;;5.20;4.70;;;;;18.50;100891.00;;;;2087943;28;20209;-51
2022/10/13 00:24:10;;;;;;;5.50;5.00;;;;;18.50;100893.00;;;;2088223;28;20267;-50
2022/10/13 00:25:10;;;;;;;5.53;5.03;;;;;18.50;100882.00;;;;2084750;28;20752;-51
2022/10/13 00:26:14;;;;;;;5.17;4.67;;;;;18.50;100877.00;;;;2079755;28;20224;-51
2022/10/13 00:27:14;;;;;;;5.28;4.82;;;;;18.50;100884.00;;;;2080007;28;20830;-51
2022/10/13 00:28:15;;;;;;;4.80;4.40;;;;;18.50;100873.00;;;;2080101;28;20214;-50
2022/10/13 00:29:16;;;;;;;5.32;4.82;;;;;18.50;100868.00;;;;2079813;28;20236;-51
2022/10/13 00:30:16;;;;;;;5.00;4.60;;;;;18.50;100823.00;;;;2079682;28;20202;-51
2022/10/13 00:31:27;;;;;;;5.47;5.00;;;;;18.50;100878.00;;;;2079548;28;20212;-50
2022/10/13 00:32:28;;;;;;;4.85;4.45;;;;;18.50;100875.00;;;;2081987;28;20678;-51
2022/10/13 00:33:28;;;;;;;5.20;4.40;;;;;18.50;100874.00;;;;2079578;28;20220;-51
2022/10/13 00:34:28;;;;;;;4.80;4.40;;;;;18.50;100878.00;;;;2079972;28;20451;-51
2022/10/13 00:35:29;;;;;;;5.10;4.60;;;;;18.50;100882.00;;;;2079315;28;20915;-50
2022/10/13 00:36:29;;;;;;;4.73;4.33;;;;;18.50;100872.00;;;;2079560;28;20214;-50
2022/10/13 00:37:29;;;;;;;5.03;4.50;;;;;18.50;100872.00;;;;2080046;28;20214;-51
2022/10/13 00:38:30;;;;;;;4.83;4.43;;;;;18.50;100880.00;;;;2080186;28;20210;-51
2022/10/13 00:39:30;;;;;;;4.70;4.30;;;;;18.50;100871.00;;;;2079842;28;20225;-51
2022/10/13 00:40:30;;;;;;;5.10;4.60;;;;;18.50;100880.00;;;;2083408;28;20212;-51
2022/10/13 00:41:31;;;;;;;5.03;4.60;;;;;18.50;100876.00;;;;2077587;28;20681;-56
2022/10/13 00:42:31;;;;;;;5.17;4.67;;;;;18.50;100882.00;;;;2079127;28;20715;-51
2022/10/13 00:43:59;;;;;;;4.87;4.40;;;;;18.50;100884.00;;;;2079066;28;20220;-54
2022/10/13 00:45:06;;;;;;;5.05;4.70;;;;;18.50;100876.00;;;;2083153;28;20330;-51
2022/10/13 00:46:07;;;;;;;4.95;4.55;;;;;18.50;100871.00;;;;2087102;28;20240;-52
2022/10/13 00:47:08;;;;;;;5.03;4.63;;;;;18.50;100880.00;;;;2087197;28;20621;-51
2022/10/13 00:48:08;;;;;;;4.63;4.23;;;;;18.50;100878.00;;;;2087291;28;20213;-51
2022/10/13 00:49:10;;;;;;;4.83;4.43;;;;;18.50;100856.00;;;;2087133;28;20247;-51
2022/10/13 00:50:12;;;;;;;4.90;4.40;;;;;18.50;100876.00;;;;2087049;28;20216;-51
2022/10/13 00:51:14;;;;;;;4.50;4.10;;;;;18.50;100868.00;;;;2087011;28;20299;-50
2022/10/13 00:52:14;;;;;;;4.65;4.25;;;;;18.50;100874.00;;;;2077957;28;20210;-51
2022/10/13 00:53:15;;;;;;;4.47;4.07;;;;;18.50;100871.00;;;;2077532;28;20236;-51
2022/10/13 00:54:17;;;;;;;5.20;4.78;;;;;18.50;100874.00;;;;2078893;28;20209;-51
2022/10/13 00:55:19;;;;;;;4.40;4.07;;;;;18.50;100869.00;;;;2078925;28;20549;-51
2022/10/13 00:56:20;;;;;;;4.60;4.20;;;;;18.50;100870.00;;;;2078866;28;20280;-50
2022/10/13 00:57:20;;;;;;;6.13;4.90;;;;;18.50;100872.00;;;;2086942;28;20209;-50
2022/10/13 00:58:21;;;;;;;4.53;4.13;;;;;18.50;100867.00;;;;2087285;28;20208;-51
2022/10/13 00:59:27;;;;;;;5.10;4.67;;;;;18.50;100861.00;;;;2087424;28;20251;-51
2022/10/13 01:00:29;;;;;;;4.72;4.30;;;;;18.50;100862.00;;;;2086971;28;20990;-50
2022/10/13 01:01:29;;;;;;;4.95;4.55;;;;;18.50;100856.00;;;;2087088;28;20215;-51
2022/10/13 01:02:31;;;;;;;5.20;4.70;;;;;18.50;100864.00;;;;2086430;28;20216;-51
2022/10/13 01:03:31;;;;;;;5.20;4.78;;;;;18.50;100866.00;;;;2078956;28;20221;-51
2022/10/13 01:04:36;;;;;;;5.00;4.60;;;;;18.50;100865.00;;;;2087013;28;20738;-51
2022/10/13 01:05:37;;;;;;;5.20;4.70;;;;;18.50;100865.00;;;;2086642;28;21590;-51
2022/10/13 01:06:37;;;;;;;4.65;4.25;;;;;18.50;100844.00;;;;2079400;28;20299;-51
2022/10/13 01:07:38;;;;;;;5.23;4.67;;;;;18.50;100859.00;;;;2083599;28;20212;-51
2022/10/13 01:08:38;;;;;;;4.60;4.20;;;;;18.50;100861.00;;;;2087070;28;20292;-51
2022/10/13 01:09:41;;;;;;;4.90;4.40;;;;;18.50;100858.00;;;;2087817;28;20732;-50
2022/10/13 01:10:48;;;;;;;3.95;3.65;;;;;18.50;100855.00;;;;2087577;28;20701;-51
2022/10/13 01:12:21;;;;;;;4.78;4.38;;;;;18.50;100869.00;;;;2087182;28;20297;-49
2022/10/13 01:13:43;;;;;;;4.75;4.35;;;;;18.50;100857.00;;;;2087062;28;20209;-50
2022/10/13 01:14:58;;;;;;;4.32;3.95;;;;;18.50;100844.00;;;;2073599;28;20231;-50
2022/10/13 01:16:03;;;;;;;5.30;4.80;;;;;18.50;100852.00;;;;2068176;28;20216;-50
2022/10/13 01:17:29;;;;;;;5.10;4.60;;;;;18.50;100844.00;;;;2070942;28;20293;-50
2022/10/13 01:18:45;;;;;;;4.60;4.20;;;;;18.50;100838.00;;;;2070133;28;20264;-51
2022/10/13 01:19:51;;;;;;;5.20;4.70;;;;;18.50;100846.00;;;;2082507;28;20216;-49
2022/10/13 01:21:10;;;;;;;5.70;4.53;;;;;18.50;100838.00;;;;2086341;28;20307;-50
2022/10/13 01:22:36;;;;;;;4.70;4.30;;;;;18.50;100844.00;;;;2085866;28;20720;-51
2022/10/13 01:24:13;;;;;;;5.38;4.40;;;;;18.50;100844.00;;;;2081592;28;20220;-50
2022/10/13 01:25:32;;;;;;;4.15;3.85;;;;;18.50;100836.00;;;;2087119;28;20215;-51
2022/10/13 01:26:55;;;;;;;4.20;3.90;;;;;18.50;100837.00;;;;2087136;28;20677;-51
2022/10/13 01:28:28;;;;;;;4.95;4.45;;;;;18.50;100831.00;;;;2077768;28;20257;-50
2022/10/13 01:29:49;;;;;;;5.15;4.65;;;;;18.50;100838.00;;;;2070711;28;20276;-51
2022/10/13 01:30:52;;;;;;;4.88;4.47;;;;;18.50;100833.00;;;;2077394;28;20642;-50
2022/10/13 01:32:13;;;;;;;4.40;4.00;;;;;18.50;100839.00;;;;2077408;28;20245;-50
2022/10/13 01:33:30;;;;;;;4.40;4.00;;;;;18.50;100834.00;;;;2081267;28;20212;-51
2022/10/13 01:34:49;;;;;;;5.53;5.03;;;;;18.50;100829.00;;;;2086774;28;20239;-50
2022/10/13 01:35:52;;;;;;;4.63;4.18;;;;;18.50;100832.00;;;;2087252;28;20221;-51
2022/10/13 01:37:11;;;;;;;4.38;3.97;;;;;18.50;100830.00;;;;2087355;28;20213;-50
2022/10/13 01:38:11;;;;;;;5.15;4.65;;;;;18.50;100824.00;;;;2087209;28;20227;-51
2022/10/13 01:39:31;;;;;;;4.30;4.00;;;;;18.50;100832.00;;;;2087023;28;20213;-50
2022/10/13 01:40:44;;;;;;;4.40;4.00;;;;;18.50;100824.00;;;;2085723;28;20239;-51
2022/10/13 01:41:45;;;;;;;4.40;4.00;;;;;18.50;100834.00;;;;2085461;28;20223;-50
2022/10/13 01:42:57;;;;;;;4.97;4.47;;;;;18.50;100831.00;;;;2085403;28;20213;-50
2022/10/13 01:44:19;;;;;;;4.40;4.00;;;;;18.50;100828.00;;;;2082788;28;20213;-51
2022/10/13 01:45:21;;;;;;;4.65;4.22;;;;;18.50;100819.00;;;;2073100;28;20599;-51
2022/10/13 01:46:23;;;;;;;5.15;4.75;;;;;18.50;100825.00;;;;2065608;28;20240;-51
2022/10/13 01:47:24;;;;;;;4.82;4.32;;;;;18.50;100818.00;;;;2069842;28;20218;-50
2022/10/13 01:48:24;;;;;;;4.73;4.33;;;;;18.50;100825.00;;;;2069894;28;20615;-51
2022/10/13 01:49:27;;;;;;;4.87;4.20;;;;;18.50;100822.00;;;;2068883;28;20238;-50
2022/10/13 01:50:27;;;;;;;4.03;3.72;;;;;18.50;100809.00;;;;2074652;28;20217;-50
2022/10/13 01:51:28;;;;;;;5.10;4.50;;;;;18.50;100821.00;;;;2078512;28;20224;-51
2022/10/13 01:52:31;;;;;;;4.47;4.07;;;;;18.50;100818.00;;;;2076358;28;20394;-51
2022/10/13 01:53:32;;;;;;;4.45;4.05;;;;;18.50;100820.00;;;;2070605;28;25707;-50
2022/10/13 01:54:32;;;;;;;4.40;4.03;;;;;18.50;100822.00;;;;2070540;28;20264;-51
2022/10/13 01:55:32;;;;;;;5.03;4.63;;;;;18.50;100818.00;;;;2084399;28;20221;-50
2022/10/13 01:56:33;;;;;;;4.80;4.40;;;;;18.50;100819.00;;;;2079242;28;20224;-51
2022/10/13 01:57:35;;;;;;;4.20;3.83;;;;;18.50;100814.00;;;;2079171;28;20221;-50
2022/10/13 01:58:35;;;;;;;4.75;4.35;;;;;18.50;100818.00;;;;2078909;28;20235;-50
2022/10/13 01:59:37;;;;;;;4.10;3.80;;;;;18.50;100821.00;;;;2078660;28;20661;-51
2022/10/13 02:00:39;;;;;;;4.65;4.25;;;;;18.50;100803.00;;;;2078539;28;20220;-51
2022/10/13 02:01:58;;;;;;;4.43;4.10;;;;;18.50;100814.00;;;;2082742;28;20217;-50
2022/10/13 02:03:22;;;;;;;4.53;4.13;;;;;18.40;100801.00;;;;2086897;28;20334;-51
2022/10/13 02:04:46;;;;;;;4.10;3.80;;;;;18.50;100814.00;;;;2086510;28;20858;-51
2022/10/13 02:05:50;;;;;;;4.65;4.25;;;;;18.50;100813.00;;;;2086024;28;20223;-50
2022/10/13 02:07:01;;;;;;;5.03;4.53;;;;;18.50;100814.00;;;;2083673;28;20344;-51
2022/10/13 02:08:16;;;;;;;4.43;4.03;;;;;18.50;100798.00;;;;2086757;28;20208;-51
2022/10/13 02:09:39;;;;;;;4.38;4.07;;;;;18.50;100810.00;;;;2071556;28;20885;-50
2022/10/13 02:11:06;;;;;;;4.50;4.10;;;;;18.50;100806.00;;;;2082783;28;20224;-51
2022/10/13 02:12:13;;;;;;;4.90;4.40;;;;;18.50;100810.00;;;;2085303;28;20216;-51
2022/10/13 02:13:14;;;;;;;4.60;4.20;;;;;18.50;100807.00;;;;2086568;28;20227;-51
2022/10/13 02:14:17;;;;;;;4.60;4.20;;;;;18.50;100805.00;;;;2085881;28;21163;-51
2022/10/13 02:15:21;;;;;;;4.38;3.97;;;;;18.50;100807.00;;;;2086093;28;20479;-51
2022/10/13 02:16:22;;;;;;;4.20;3.80;;;;;18.50;100802.00;;;;2086610;28;20232;-51
2022/10/13 02:17:23;;;;;;;4.50;4.10;;;;;18.50;100802.00;;;;2086631;28;20749;-51
2022/10/13 02:18:33;;;;;;;4.10;3.70;;;;;18.50;100805.00;;;;2086765;28;20294;-51
2022/10/13 02:19:34;;;;;;;4.10;3.70;;;;;18.50;100800.00;;;;2078121;28;20208;-51
2022/10/13 02:20:35;;;;;;;4.80;4.28;;;;;18.50;100796.00;;;;2057246;28;20732;-51
2022/10/13 02:21:35;;;;;;;4.17;3.80;;;;;18.50;100801.00;;;;2061974;28;20222;-50
2022/10/13 02:22:39;;;;;;;4.20;3.90;;;;;18.50;100802.00;;;;2077519;28;20256;-51
2022/10/13 02:23:41;;;;;;;4.07;3.67;;;;;18.50;100782.00;;;;2079016;28;20256;-50
2022/10/13 02:24:42;;;;;;;4.00;3.70;;;;;18.50;100786.00;;;;2079722;28;20221;-51
2022/10/13 02:25:42;;;;;;;4.20;3.90;;;;;18.50;100793.00;;;;2078063;28;20217;-50
2022/10/13 02:26:42;;;;;;;5.10;3.87;;;;;18.50;100793.00;;;;2086427;28;20241;-50
2022/10/13 02:27:43;;;;;;;4.60;4.20;;;;;18.50;100804.00;;;;2077887;28;20825;-50
2022/10/13 02:28:43;;;;;;;3.67;3.37;;;;;18.50;100802.00;;;;2070165;28;20253;-51
2022/10/13 02:29:51;;;;;;;4.30;3.90;;;;;18.50;100800.00;;;;2078249;28;20217;-51
2022/10/13 02:30:51;;;;;;;5.18;4.05;;;;;18.50;100803.00;;;;2078024;28;20304;-49
2022/10/13 02:31:53;;;;;;;4.43;4.03;;;;;18.50;100810.00;;;;2078290;28;20243;-50
2022/10/13 02:32:53;;;;;;;4.50;4.10;;;;;18.50;100800.00;;;;2078897;28;21108;-50
2022/10/13 02:33:54;;;;;;;3.97;3.57;;;;;18.50;100801.00;;;;2078176;28;20217;-51
2022/10/13 02:34:54;;;;;;;4.87;3.93;;;;;18.50;100800.00;;;;2078108;28;20205;-51
2022/10/13 02:35:55;;;;;;;4.50;4.10;;;;;18.50;100803.00;;;;2078870;28;20271;-51
2022/10/13 02:36:55;;;;;;;4.23;3.87;;;;;18.50;100802.00;;;;2078669;28;20217;-50
2022/10/13 02:37:55;;;;;;;4.73;4.33;;;;;18.50;100799.00;;;;2078969;28;20700;-51
2022/10/13 02:38:56;;;;;;;4.33;3.90;;;;;18.50;100810.00;;;;2078138;28;20216;-50
2022/10/13 02:39:56;;;;;;;4.40;3.63;;;;;18.50;100791.00;;;;2078616;28;20220;-51
2022/10/13 02:40:56;;;;;;;4.07;3.70;;;;;18.50;100802.00;;;;2078627;28;20227;-52
2022/10/13 02:41:57;;;;;;;4.37;3.97;;;;;18.50;100805.00;;;;2077917;28;20236;-51
2022/10/13 02:42:57;;;;;;;4.17;3.87;;;;;18.50;100805.00;;;;2082580;28;20723;-51
2022/10/13 02:43:58;;;;;;;4.07;3.67;;;;;18.50;100810.00;;;;2082780;28;20217;-51
2022/10/13 02:44:58;;;;;;;4.10;3.80;;;;;18.50;100807.00;;;;2080803;28;20336;-51
2022/10/13 02:45:58;;;;;;;3.90;3.57;;;;;18.40;100804.00;;;;2078728;28;20263;-51
2022/10/13 02:46:59;;;;;;;4.97;3.97;;;;;18.40;100802.00;;;;2085992;28;20259;-51
2022/10/13 02:47:59;;;;;;;4.23;3.83;;;;;18.50;100800.00;;;;2086701;28;20696;-51
2022/10/13 02:48:59;;;;;;;4.30;3.90;;;;;18.50;100797.00;;;;2082860;28;20741;-51
2022/10/13 02:50:00;;;;;;;4.50;4.10;;;;;18.50;100804.00;;;;2086303;28;20639;-50
2022/10/13 02:51:00;;;;;;;4.33;4.03;;;;;18.50;100802.00;;;;2078983;28;20566;-50
2022/10/13 02:52:00;;;;;;;4.27;3.87;;;;;18.50;100801.00;;;;2086090;28;20216;-50
2022/10/13 02:53:00;;;;;;;4.30;4.00;;;;;18.50;100810.00;;;;2086925;28;20216;-51
2022/10/13 02:54:01;;;;;;;3.93;3.53;;;;;18.50;100800.00;;;;2086376;28;20247;-51
2022/10/13 02:55:01;;;;;;;3.87;3.57;;;;;18.50;100796.00;;;;2082193;28;20257;-52
2022/10/13 02:56:01;;;;;;;4.50;4.10;;;;;18.50;100805.00;;;;2082474;28;20220;-51
2022/10/13 02:57:02;;;;;;;4.03;3.73;;;;;18.20;100803.00;;;;2086182;28;20217;-51
2022/10/13 02:58:03;;;;;;;4.67;4.27;;;;;18.50;100798.00;;;;2081494;28;20221;-51
2022/10/13 02:59:03;;;;;;;4.30;3.93;;;;;18.50;100807.00;;;;2085334;28;20265;-51
2022/10/13 03:00:04;;;;;;;4.27;3.67;;;;;18.50;100801.00;;;;2078549;28;20291;-51
2022/10/13 03:01:13;;;;;;;4.38;3.97;;;;;18.50;100802.00;;;;2082574;28;20215;-51
2022/10/13 03:02:13;;;;;;;4.07;3.67;;;;;18.50;100800.00;;;;2082265;28;20219;-51
2022/10/13 03:03:13;;;;;;;4.87;4.07;;;;;18.50;100797.00;;;;2082820;28;20218;-51
2022/10/13 03:04:14;;;;;;;3.97;3.57;;;;;18.50;100803.00;;;;2081868;28;20212;-51
2022/10/13 03:05:14;;;;;;;3.90;3.60;;;;;18.50;100796.00;;;;2086496;28;20325;-52
2022/10/13 03:06:14;;;;;;;4.60;4.20;;;;;18.50;100794.00;;;;2086745;28;20637;-52
2022/10/13 03:07:15;;;;;;;3.73;3.43;;;;;18.50;100801.00;;;;2086346;28;20680;-50
2022/10/13 03:08:15;;;;;;;4.13;3.80;;;;;18.50;100803.00;;;;2086057;28;20700;-51
2022/10/13 03:09:15;;;;;;;4.60;4.20;;;;;18.50;100789.00;;;;2087003;28;20630;-53
2022/10/13 03:10:16;;;;;;;4.83;4.40;;;;;18.50;100798.00;;;;2086773;28;20215;-52
2022/10/13 03:11:16;;;;;;;4.00;3.60;;;;;18.50;100798.00;;;;2086594;28;20310;-52
2022/10/13 03:12:16;;;;;;;4.90;4.40;;;;;18.50;100706.00;;;;2085411;28;20246;-52
2022/10/13 03:13:17;;;;;;;3.93;3.30;;;;;18.50;100797.00;;;;2086626;28;20216;-52
2022/10/13 03:14:17;;;;;;;3.83;3.40;;;;;18.50;100793.00;;;;2086913;28;20247;-52
2022/10/13 03:15:17;;;;;;;4.33;3.93;;;;;18.50;100823.00;;;;2086553;28;20236;-50
2022/10/13 03:16:18;;;;;;;3.60;3.30;;;;;18.50;100789.00;;;;2086846;28;20305;-52
2022/10/13 03:17:18;;;;;;;4.60;4.07;;;;;18.50;100781.00;;;;2086935;28;20220;-51
2022/10/13 03:18:18;;;;;;;4.83;3.50;;;;;18.50;100785.00;;;;2086912;28;21217;-51
2022/10/13 03:19:19;;;;;;;3.87;3.57;;;;;18.50;100779.00;;;;2086616;28;20215;-52
2022/10/13 03:20:19;;;;;;;4.20;3.87;;;;;18.50;100791.00;;;;2086796;28;20208;-52
2022/10/13 03:21:19;;;;;;;3.73;3.43;;;;;18.50;100779.00;;;;2086480;28;20216;-52
2022/10/13 03:22:20;;;;;;;4.20;3.80;;;;;18.50;100772.00;;;;2085968;28;20318;-50
2022/10/13 03:23:20;;;;;;;3.97;3.67;;;;;18.50;100775.00;;;;2086436;28;20223;-50
2022/10/13 03:24:20;;;;;;;3.87;3.57;;;;;18.50;100783.00;;;;2086749;28;20251;-51
2022/10/13 03:25:21;;;;;;;3.67;3.37;;;;;18.50;100783.00;;;;2086417;28;20215;-51
2022/10/13 03:26:21;;;;;;;4.50;4.10;;;;;18.50;100781.00;;;;2086579;28;20430;-52
2022/10/13 03:27:21;;;;;;;3.90;3.60;;;;;18.50;100779.00;;;;2086533;28;20276;-52
2022/10/13 03:28:22;;;;;;;4.47;3.90;;;;;18.50;100782.00;;;;2085943;28;20316;-52
2022/10/13 03:29:22;;;;;;;4.90;4.20;;;;;18.50;100777.00;;;;2084907;28;20237;-51
2022/10/13 03:30:22;;;;;;;3.80;3.50;;;;;18.50;100778.00;;;;2086882;28;20284;-50
2022/10/13 03:31:23;;;;;;;3.80;3.50;;;;;18.50;100778.00;;;;2086533;28;20212;-50
2022/10/13 03:32:23;;;;;;;4.10;3.70;;;;;18.50;100768.00;;;;2085652;28;20251;-51
2022/10/13 03:33:23;;;;;;;4.43;4.07;;;;;18.50;100772.00;;;;2086843;28;20212;-50
2022/10/13 03:34:24;;;;;;;3.80;3.33;;;;;18.50;100772.00;;;;2082301;28;20217;-51
2022/10/13 03:35:24;;;;;;;3.80;3.37;;;;;18.50;100769.00;;;;2078688;28;20212;-51
2022/10/13 03:36:24;;;;;;;4.23;3.83;;;;;18.50;100779.00;;;;2077800;28;20232;-50
2022/10/13 03:37:25;;;;;;;4.70;3.97;;;;;18.50;100776.00;;;;2078270;28;20223;-50
2022/10/13 03:38:25;;;;;;;3.67;3.37;;;;;18.50;100770.00;;;;2078528;28;20220;-51
2022/10/13 03:39:25;;;;;;;4.03;3.50;;;;;18.50;100770.00;;;;2086337;28;20230;-51
2022/10/13 03:40:26;;;;;;;3.97;3.67;;;;;18.50;100769.00;;;;2086873;28;20227;-51
2022/10/13 03:41:26;;;;;;;3.97;3.67;;;;;18.50;100767.00;;;;2086624;28;20220;-51
2022/10/13 03:42:26;;;;;;;4.77;3.50;;;;;18.50;100764.00;;;;2085408;28;20219;-51
2022/10/13 03:43:27;;;;;;;4.10;3.80;;;;;18.50;100771.00;;;;2086756;28;20213;-50
2022/10/13 03:44:27;;;;;;;3.77;3.47;;;;;18.40;100770.00;;;;2084204;28;20523;-50
2022/10/13 03:45:30;;;;;;;4.00;3.70;;;;;18.50;100761.00;;;;2078267;28;20209;-50
2022/10/13 03:46:30;;;;;;;4.78;3.78;;;;;18.50;100761.00;;;;2078384;28;20220;-51
2022/10/13 03:47:31;;;;;;;4.17;3.87;;;;;18.50;100767.00;;;;2076827;28;20233;-52
2022/10/13 03:48:32;;;;;;;3.72;3.40;;;;;18.50;100768.00;;;;2077361;28;20232;-50
2022/10/13 03:49:33;;;;;;;3.72;3.42;;;;;18.50;100762.00;;;;2077791;28;20339;-51
2022/10/13 03:50:33;;;;;;;4.07;3.60;;;;;18.50;100758.00;;;;2077949;28;20249;-50
2022/10/13 03:51:33;;;;;;;3.93;3.63;;;;;18.50;100756.00;;;;2079198;28;20280;-50
2022/10/13 03:52:34;;;;;;;4.10;3.70;;;;;18.50;100756.00;;;;2078867;28;20283;-51
2022/10/13 03:53:34;;;;;;;4.80;3.97;;;;;18.50;100751.00;;;;2086259;28;20234;-52
2022/10/13 03:54:34;;;;;;;3.97;3.67;;;;;18.50;100753.00;;;;2088052;28;20347;-51
2022/10/13 03:55:35;;;;;;;3.60;3.30;;;;;18.50;100756.00;;;;2087882;28;20208;-51
2022/10/13 03:56:35;;;;;;;4.30;3.93;;;;;18.50;100755.00;;;;2088292;28;20704;-52
2022/10/13 03:57:35;;;;;;;3.43;3.13;;;;;18.40;100755.00;;;;2087831;28;20707;-51
2022/10/13 03:58:36;;;;;;;3.90;3.60;;;;;18.50;100751.00;;;;2088319;28;20636;-49
2022/10/13 03:59:38;;;;;;;4.00;3.60;;;;;18.50;100759.00;;;;2087797;28;20566;-51
2022/10/13 04:00:39;;;;;;;6.07;3.75;;;;;18.50;100759.00;;;;2088416;28;20704;-52
2022/10/13 04:01:39;;;;;;;3.47;3.17;;;;;18.50;100754.00;;;;2088026;28;20213;-51
2022/10/13 04:02:39;;;;;;;3.63;3.33;;;;;18.50;100753.00;;;;2087391;28;20609;-52
2022/10/13 04:03:40;;;;;;;3.90;3.53;;;;;18.40;100752.00;;;;2080164;28;20209;-52
2022/10/13 04:04:40;;;;;;;3.67;3.30;;;;;18.50;100731.00;;;;2079827;28;20213;-52
2022/10/13 04:05:40;;;;;;;3.70;3.40;;;;;18.50;100752.00;;;;2080098;28;20210;-50
2022/10/13 04:06:40;;;;;;;4.03;3.60;;;;;18.50;100753.00;;;;2079710;28;20233;-50
2022/10/13 04:07:41;;;;;;;4.20;3.80;;;;;18.50;100746.00;;;;2080065;28;20228;-52
2022/10/13 04:08:41;;;;;;;4.20;3.57;;;;;18.50;100749.00;;;;2080023;28;20205;-52
2022/10/13 04:09:42;;;;;;;3.37;3.13;;;;;18.50;100747.00;;;;2079627;28;20217;-51
2022/10/13 04:10:42;;;;;;;3.73;3.43;;;;;18.50;100750.00;;;;2080239;28;20316;-52
2022/10/13 04:11:42;;;;;;;4.00;3.70;;;;;18.10;100741.00;;;;2079776;28;20228;-52
2022/10/13 04:12:43;;;;;;;3.30;3.00;;;;;18.50;100745.00;;;;2078125;28;20254;-51
2022/10/13 04:13:43;;;;;;;3.77;3.40;;;;;18.50;100742.00;;;;2079930;28;21170;-51
2022/10/13 04:14:43;;;;;;;4.33;3.97;;;;;18.50;100734.00;;;;2079906;28;20651;-52
2022/10/13 04:15:44;;;;;;;3.53;3.23;;;;;18.50;100731.00;;;;2079733;28;20288;-52
2022/10/13 04:16:44;;;;;;;3.80;3.40;;;;;18.50;100747.00;;;;2080088;28;20221;-50
2022/10/13 04:17:45;;;;;;;4.70;3.40;;;;;18.50;100747.00;;;;2080126;28;20218;-51
2022/10/13 04:18:49;;;;;;;3.37;3.07;;;;;18.50;100736.00;;;;2082825;28;20217;-49
2022/10/13 04:19:50;;;;;;;3.60;3.30;;;;;18.50;100734.00;;;;2088004;28;20294;-51
2022/10/13 04:20:50;;;;;;;3.57;3.27;;;;;18.50;100739.00;;;;2087821;28;20269;-51
2022/10/13 04:21:50;;;;;;;3.83;3.43;;;;;18.50;100741.00;;;;2087153;28;20216;-52
2022/10/13 04:22:51;;;;;;;3.30;3.00;;;;;18.50;100746.00;;;;2087660;28;20247;-51
2022/10/13 04:23:56;;;;;;;3.60;3.30;;;;;18.50;100742.00;;;;2088026;28;20225;-50
2022/10/13 04:24:57;;;;;;;3.42;3.13;;;;;18.50;100739.00;;;;2086349;28;20252;-51
2022/10/13 04:25:57;;;;;;;3.60;3.30;;;;;18.50;100747.00;;;;2080183;28;20292;-50
2022/10/13 04:26:57;;;;;;;3.10;2.90;;;;;18.50;100736.00;;;;2087291;28;20637;-51
2022/10/13 04:27:58;;;;;;;3.77;3.47;;;;;18.50;100735.00;;;;2084357;28;20577;-50
2022/10/13 04:28:58;;;;;;;4.20;3.90;;;;;18.50;100735.00;;;;2087980;28;20575;-51
2022/10/13 04:29:58;;;;;;;3.80;3.30;;;;;18.50;100733.00;;;;2084739;28;20224;-50
2022/10/13 04:30:59;;;;;;;4.20;3.80;;;;;18.50;100723.00;;;;2088130;28;20220;-51
2022/10/13 04:32:00;;;;;;;3.47;3.17;;;;;18.50;100731.00;;;;2086821;28;20300;-51
2022/10/13 04:33:00;;;;;;;3.57;3.23;;;;;18.50;100723.00;;;;2087299;28;20208;-50
2022/10/13 04:34:00;;;;;;;3.70;3.40;;;;;18.50;100733.00;;;;2088004;28;20216;-50
2022/10/13 04:35:01;;;;;;;5.27;3.63;;;;;18.50;100729.00;;;;2087734;28;20220;-50
2022/10/13 04:36:05;;;;;;;4.60;3.67;;;;;18.50;100728.00;;;;2087787;28;20433;-51
2022/10/13 04:37:06;;;;;;;3.67;3.28;;;;;18.50;100721.00;;;;2086450;28;20853;-53
2022/10/13 04:38:06;;;;;;;3.73;3.43;;;;;18.50;100723.00;;;;2087984;28;20228;-50
2022/10/13 04:39:06;;;;;;;3.53;3.23;;;;;18.50;100722.00;;;;2088061;28;20236;-51
2022/10/13 04:40:07;;;;;;;3.97;3.57;;;;;18.50;100727.00;;;;2087979;28;20227;-50
2022/10/13 04:41:08;;;;;;;3.70;3.40;;;;;18.50;100728.00;;;;2088013;28;20227;-51
2022/10/13 04:42:08;;;;;;;3.53;3.27;;;;;18.50;100727.00;;;;2086126;28;20266;-51
2022/10/13 04:43:09;;;;;;;3.67;3.27;;;;;18.50;100727.00;;;;2087216;28;20300;-51
2022/10/13 04:44:09;;;;;;;3.30;3.00;;;;;18.50;100724.00;;;;2087779;28;20212;-50
2022/10/13 04:45:09;;;;;;;4.03;3.10;;;;;18.50;100729.00;;;;2082656;28;20667;-51
2022/10/13 04:46:13;;;;;;;3.50;3.20;;;;;18.50;100725.00;;;;2079751;28;20843;-51
2022/10/13 04:47:14;;;;;;;3.88;3.58;;;;;18.50;100729.00;;;;2079624;28;20705;-51
2022/10/13 04:48:14;;;;;;;3.50;3.20;;;;;18.50;100730.00;;;;2079854;28;20228;-51
2022/10/13 04:49:15;;;;;;;3.33;3.10;;;;;18.50;100732.00;;;;2079472;28;20298;-51
2022/10/13 04:50:16;;;;;;;3.87;3.47;;;;;18.50;100733.00;;;;2079715;28;20210;-51
2022/10/13 04:51:18;;;;;;;3.93;3.53;;;;;18.50;100732.00;;;;2079005;28;21225;-51
2022/10/13 04:52:18;;;;;;;3.58;3.10;;;;;18.50;100723.00;;;;2082358;28;20708;-50
2022/10/13 04:53:18;;;;;;;3.80;3.33;;;;;18.50;100720.00;;;;2079861;28;20213;-50
2022/10/13 04:54:19;;;;;;;3.90;3.50;;;;;18.50;100724.00;;;;2078985;28;20237;-50
2022/10/13 04:55:19;;;;;;;3.47;3.17;;;;;18.50;100724.00;;;;2079329;28;20293;-51
2022/10/13 04:56:19;;;;;;;3.60;3.30;;;;;18.50;100719.00;;;;2079707;28;20213;-51
2022/10/13 04:57:20;;;;;;;3.43;3.13;;;;;18.50;100721.00;;;;2079802;28;20236;-50
2022/10/13 04:58:20;;;;;;;3.50;3.20;;;;;18.50;100723.00;;;;2079741;28;20222;-50
2022/10/13 04:59:20;;;;;;;3.77;3.47;;;;;18.40;100709.00;;;;2071738;28;20236;-50
2022/10/13 05:00:21;;;;;;;3.40;3.10;;;;;18.50;100706.00;;;;2078830;28;20209;-50
2022/10/13 05:01:22;;;;;;;3.13;2.87;;;;;18.40;100710.00;;;;2087075;28;20263;-50
2022/10/13 05:02:23;;;;;;;3.45;3.15;;;;;18.50;100710.00;;;;2086369;28;20279;-50
2022/10/13 05:03:23;;;;;;;3.23;2.90;;;;;18.50;100718.00;;;;2087487;28;20275;-50
2022/10/13 05:04:23;;;;;;;3.50;3.20;;;;;18.40;100718.00;;;;2087510;28;20216;-51
2022/10/13 05:05:24;;;;;;;4.50;3.73;;;;;18.10;100715.00;;;;2087362;28;20208;-51
2022/10/13 05:06:26;;;;;;;3.80;3.40;;;;;18.50;100719.00;;;;2088027;28;20263;-50
2022/10/13 05:07:26;;;;;;;3.72;3.42;;;;;18.50;100710.00;;;;2087922;28;20209;-51
2022/10/13 05:08:27;;;;;;;2.97;2.77;;;;;18.50;100707.00;;;;2087975;28;20568;-51
2022/10/13 05:09:27;;;;;;;3.63;3.30;;;;;18.50;100713.00;;;;2087867;28;20221;-51
2022/10/13 05:10:27;;;;;;;3.73;3.30;;;;;18.50;100712.00;;;;2087522;28;20220;-50
2022/10/13 05:11:28;;;;;;;3.50;3.20;;;;;18.50;100711.00;;;;2087747;28;20247;-50